Nearby METAR Reports

 

KSEE - San Diego/Santee, California, USA
Distance from station: E 4mi, 6km
Updated: Mon, 10-May-2021 1:35am PDT
Overcast
Overcast
 Wind from SSW
Wind: SSW 5 mph , 7 km/h
Temperature: 59°F , 15°C
Dew Point: 52°F , 11°C
Humidity: 77%
Barometer: 29.90 inHg , 1012.5 hPa
Clouds: Overcast
Visibility: 10 miles , 16 km
Cloud details: Overcast 1600 ft
2021/05/10 08:35 KSEE 100835Z AUTO 21004KT 10SM OVC016 15/11 A2990 RMK AO2
KMYF - San Diego/Mntgmy, California, USA
Distance from station: W 6mi, 10km
Updated: Mon, 10-May-2021 1:19am PDT
Overcast
Overcast
 Wind from SSW
Wind: SSW 5 mph , 7 km/h
Temperature: 59°F , 15°C
Dew Point: 52°F , 11°C
Humidity: 77%
Barometer: 29.91 inHg , 1012.9 hPa
Clouds: Overcast
Visibility: 10 miles , 16 km
Cloud details: Overcast 1500 ft
2021/05/10 08:19 KMYF 100819Z AUTO 20004KT 10SM OVC015 15/11 A2991 RMK AO2 T01500106
 
KNKX - Miramar Nas/San, California, USA
Distance from station: WNW 7mi, 11km
Updated: Mon, 10-May-2021 1:20am PDT
Overcast
Overcast
 Wind from calm
Wind: Calm
Temperature: 59°F , 15°C
Dew Point: 52°F , 11°C
Humidity: 77%
Barometer: 29.91 inHg , 1012.9 hPa
Clouds: Overcast
Visibility: 10 miles , 16 km
Cloud details: Overcast 1500 ft
2021/05/10 08:20 KNKX 100820Z 00000KT 10SM OVC015 15/11 A2991 RMK AO2 T01500111 $
KSAN - San Diego, California, USA
Distance from station: WSW 11mi, 17km
Updated: Mon, 10-May-2021 12:51am PDT
Overcast
Overcast
 Wind from calm
Wind: Calm
Temperature: 63°F , 17°C
Dew Point: 52°F , 11°C
Humidity: 68%
Barometer: 29.93 inHg , 1013.5 hPa
Clouds: Overcast
Visibility: 10 miles , 16 km
Cloud details: Overcast 1700 ft
2021/05/10 07:51 KSAN 100751Z 00000KT 10SM OVC017 17/11 A2993 RMK AO2 SLP136 T01670106 402060161
 
KNZY - North Island Nas, California, USA
Distance from station: SW 13mi, 22km
Updated: Mon, 10-May-2021 12:52am PDT
Overcast
Overcast
 Wind from SSW
Wind: SSW 5 mph , 7 km/h
Temperature: 59°F , 15°C
Dew Point: 52°F , 11°C
Humidity: 77%
Barometer: 29.91 inHg , 1012.9 hPa
Clouds: Overcast
Visibility: 10 miles , 16 km
Cloud details: Overcast 1700 ft
2021/05/10 07:52 KNZY 100752Z AUTO 21004KT 10SM OVC017 15/11 A2991 RMK AO2 SLP129 T01500106 401780144 $
KRNM - Ramona, California, USA
Distance from station: NNE 16mi, 26km
Updated: Mon, 10-May-2021 12:53am PDT
Overcast
Overcast
 Wind from SW
Wind: SW 3 mph , 6 km/h
Temperature: 55°F , 13°C
Dew Point: 52°F , 11°C
Humidity: 88%
Barometer: 29.91 inHg , 1012.9 hPa
Clouds: Overcast
Visibility: 8 miles , 13 km
Cloud details: Overcast 700 ft
2021/05/10 07:53 KRNM 100753Z AUTO 23003KT 8SM OVC007 13/11 A2991 RMK AO2 SLP119 T01280106 402500083 PWINO $
 
KSDM - San Diego/Brown, California, USA
Distance from station: S 16mi, 26km
Updated: Mon, 10-May-2021 12:53am PDT
Overcast
Overcast
 Wind from calm
Wind: Calm
Temperature: 61°F , 16°C
Dew Point: 48°F , 9°C
Humidity: 63%
Barometer: 29.91 inHg , 1012.9 hPa
Clouds: Overcast
Visibility: 9 miles , 14 km
Cloud details: Overcast 1500 ft
2021/05/10 07:53 KSDM 100753Z AUTO 00000KT 9SM OVC015 16/09 A2991 RMK AO2 SLP125 T01560094 402280139
KNRS - Imperial Beach, California, USA
Distance from station: SSW 18mi, 29km
Updated: Mon, 10-May-2021 12:56am PDT
Overcast
Overcast
 
Barometer: 29.93 inHg , 1013.5 hPa
Clouds: Overcast
Visibility: 10 miles , 16 km
Cloud details: Overcast 1800 ft
2021/05/10 07:56 KNRS 100756Z AUTO 10SM OVC018 A2993 RMK AO2 SLP136 $
 
MMTJ - Tijuana Intl Arp, Mexico
Distance from station: S 20mi, 32km
Updated: Mon, 10-May-2021 12:46am PDT
Overcast
Overcast
 Wind from calm
Wind: Calm
Temperature: 57°F , 14°C
Dew Point: 48°F , 9°C
Humidity: 72%
Barometer: 29.94 inHg , 1013.9 hPa
Clouds: Overcast
Visibility: 4 miles , 6 km
Cloud details: Overcast 1500 ft
2021/05/10 07:46 MMTJ 100746Z 00000KT 4SM OVC015 14/09 A2994 RMK 8/5// HZY MSGTX MMMX
KCRQ - Carlsbad, California, USA
Distance from station: NW 26mi, 43km
Updated: Mon, 10-May-2021 12:53am PDT
Overcast
Overcast
 Wind from calm
Wind: Calm
Temperature: 61°F , 16°C
Dew Point: 52°F , 11°C
Humidity: 72%
Barometer: 29.90 inHg , 1012.5 hPa
Clouds: Overcast
Visibility: 10 miles , 16 km
Cloud details: Overcast 1600 ft
2021/05/10 07:53 KCRQ 100753Z AUTO 00000KT 10SM OVC016 16/11 A2990 RMK AO2 SLP124 T01560111 401830139
 
KOKB - Oceanside, California, USA
Distance from station: NW 33mi, 54km
Updated: Mon, 10-May-2021 12:52am PDT
Overcast
Overcast
 Wind from SW
Wind: SW 3 mph , 6 km/h
Temperature: 61°F , 16°C
Dew Point: 54°F , 12°C
Humidity: 77%
Barometer: 29.90 inHg , 1012.5 hPa
Clouds: Overcast
Visibility: 9 miles , 14 km
Cloud details: Overcast 1700 ft
2021/05/10 07:52 KOKB 100752Z AUTO 22003KT 9SM OVC017 16/12 A2990 RMK AO2 SLP125 T01560117 402060106
KCZZ - Campo, California, USA
Distance from station: ESE 35mi, 56km
Updated: Mon, 26-Oct-2020 8:52am PDT
NOT Current

 Wind from NE
Wind: NE 14 mph , 22 km/h, Gust: 20 mph , 31 km/h
Temperature: 48°F , 9°C
Wind Chill: 42°F , 6°C
Dew Point: 27°F , -3°C
Humidity: 43%
Barometer: 29.99 inHg , 1015.6 hPa
2020/10/26 15:52 KCZZ 261552Z AUTO 05012G17KT 09/M03 A2999 RMK AO1 SLP140 T00891028
 
KNFG - Camp Pendleton, California, USA
Distance from station: NNW 37mi, 59km
Updated: Mon, 10-May-2021 12:55am PDT
Overcast
Overcast
 Wind from calm
Wind: Calm
Temperature: 63°F , 17°C
Dew Point: 54°F , 12°C
Humidity: 73%
Barometer: 29.91 inHg , 1012.9 hPa
Clouds: Overcast
Visibility: 10 miles , 16 km
Cloud details: Overcast 1700 ft
2021/05/10 07:55 KNFG 100755Z AUTO 00000KT 10SM OVC017 17/12 A2991 RMK AO2 SLP127 T01720117 402170106
KRIV - Riverside/March, California, USA
Distance from station: N 74mi, 119km
Updated: Mon, 10-May-2021 12:58am PDT
Overcast
Overcast
 Wind from SSE
Wind: SSE 5 mph , 7 km/h
Temperature: 57°F , 14°C
Dew Point: 52°F , 11°C
Humidity: 82%
Barometer: 29.90 inHg , 1012.5 hPa
Clouds: Overcast
Visibility: 7 miles , 11 km
Cloud details: Overcast 900 ft
2021/05/10 07:58 KRIV 100758Z 16004KT 7SM OVC009 14/11 A2990 RMK AO2A SLP118 T01370107 402410105
 
KTRM - Thermal/Palm Spg, California, USA
Distance from station: NE 75mi, 121km
Updated: Mon, 10-May-2021 12:52am PDT
Clear
Clear
 Wind from NW
Wind: NW 10 mph , 17 km/h
Temperature: 75°F , 24°C
Dew Point: 48°F , 9°C
Humidity: 39%
Barometer: 29.71 inHg , 1006.1 hPa
Clouds: Clear
Visibility: 10 miles , 16 km
2021/05/10 07:52 KTRM 100752Z AUTO 31009KT 10SM CLR 24/09 A2971 RMK AO2 SLP061 T02390094 403500144
KPSP - Palm Springs, California, USA
Distance from station: NNE 76mi, 122km
Updated: Mon, 10-May-2021 12:53am PDT
Clear
Clear
 Wind from WSW
Wind: WSW 5 mph , 7 km/h
Temperature: 73°F , 23°C
Dew Point: 48°F , 9°C
Humidity: 41%
Barometer: 29.74 inHg , 1007.1 hPa
Clouds: Clear
Visibility: 10 miles , 16 km
2021/05/10 07:53 KPSP 100753Z AUTO 25004KT 10SM CLR 23/09 A2974 RMK AO2 SLP065 T02330089 403560206 $
 
KSNA - Costa Mesa, California, USA
Distance from station: NW 76mi, 123km
Updated: Mon, 10-May-2021 12:53am PDT
Overcast
Overcast
 Wind from ESE
Wind: ESE 8 mph , 13 km/h
Temperature: 63°F , 17°C
Dew Point: 52°F , 11°C
Humidity: 68%
Barometer: 29.90 inHg , 1012.5 hPa
Clouds: Overcast
Visibility: 10 miles , 16 km
Cloud details: Overcast 2400 ft
2021/05/10 07:53 KSNA 100753Z AUTO 12007KT 10SM OVC024 17/11 A2990 RMK AO2 SLP123 T01720111 402060156
KNJK - El Centro Naf, California, USA
Distance from station: E 79mi, 127km
Updated: Mon, 10-May-2021 12:56am PDT
Clear
Clear
 Wind from W
Wind: W 15 mph , 24 km/h
Temperature: 75°F , 24°C
Barometer: 29.72 inHg , 1006.4 hPa
Clouds: Clear
Visibility: 10 miles , 16 km
2021/05/10 07:56 KNJK 100756Z AUTO 26013KT 10SM CLR 24/ A2972 RMK AO2 SLP080 T0244 403670167 $
 
KAJO - Corona Muni, California, USA
Distance from station: NNW 82mi, 132km
Updated: Mon, 10-May-2021 12:56am PDT
Mostly cloudy
Mostly cloudy
 Wind from W
Wind: W 3 mph , 6 km/h
Temperature: 57°F , 14°C
Dew Point: 54°F , 12°C
Humidity: 88%
Barometer: 29.91 inHg , 1012.9 hPa
Clouds: Mostly cloudy
Visibility: 10 miles , 16 km
Cloud details: Mostly cloudy 2400 ft
2021/05/10 07:56 KAJO 100756Z AUTO 28003KT 10SM BKN024 14/12 A2991 RMK AO2 SLP122 T01440117 402330111